WC StCyr

Date de la prise de vue : 17/07/2024 22:57:38


Et voilĂ  les METAR et TAF :
2024/07/17 23:00 LFPN 172300Z AUTO 30001KT 9999 FEW003 16/12 Q1021
2024/07/17 20:36 TAF TAF LFPN 172030Z 1720/1803 CNL